createdAt,value
2018-12-16T00:01:29.564Z,16.37
2018-12-16T00:04:33.592Z,16.65
2018-12-16T00:07:37.607Z,17.92
2018-12-16T00:10:41.606Z,16.77
2018-12-16T00:13:45.713Z,16.30
2018-12-16T00:16:49.717Z,17.77
2018-12-16T00:19:53.725Z,16.40
2018-12-16T00:22:57.760Z,17.73
2018-12-16T00:26:01.783Z,16.45
2018-12-16T00:29:05.889Z,17.17
2018-12-16T00:32:09.898Z,16.48
2018-12-16T00:35:14.092Z,18.95
2018-12-16T00:38:18.102Z,17.17
2018-12-16T00:41:22.548Z,18.12
2018-12-16T00:44:26.543Z,15.93
2018-12-16T00:47:30.558Z,17.75
2018-12-16T00:50:34.614Z,18.25
2018-12-16T00:53:38.694Z,17.80
2018-12-16T00:56:42.713Z,19.23
2018-12-16T00:59:46.734Z,18.82
2018-12-16T01:02:50.824Z,17.15
2018-12-16T01:05:54.846Z,18.02
2018-12-16T01:08:59.067Z,18.80
2018-12-16T01:12:03.090Z,17.37
2018-12-16T01:15:07.368Z,17.23
2018-12-16T01:18:11.515Z,17.40
2018-12-16T01:21:15.546Z,18.92
2018-12-16T01:24:19.583Z,17.48
2018-12-16T01:27:23.611Z,16.82
2018-12-16T01:30:27.651Z,18.98
2018-12-16T01:33:31.677Z,19.00
2018-12-16T01:36:35.707Z,18.02
2018-12-16T01:39:39.724Z,19.40
2018-12-16T01:42:43.920Z,19.82
2018-12-16T01:45:47.952Z,19.80
2018-12-16T01:48:51.974Z,18.98
2018-12-16T01:51:56.010Z,18.27
2018-12-16T01:55:00.113Z,18.67
2018-12-16T01:58:04.312Z,19.05
2018-12-16T02:01:08.346Z,21.27
2018-12-16T02:04:12.359Z,17.57
2018-12-16T02:07:16.484Z,18.73
2018-12-16T02:10:20.586Z,18.87
2018-12-16T02:13:24.707Z,19.57
2018-12-16T02:16:28.721Z,18.65
2018-12-16T02:19:32.832Z,18.57
2018-12-16T02:22:36.858Z,18.75
2018-12-16T02:25:40.898Z,19.10
2018-12-16T02:28:44.915Z,18.30
2018-12-16T02:31:48.958Z,18.80
2018-12-16T02:34:52.959Z,19.02
2018-12-16T02:37:57.076Z,19.70
2018-12-16T02:41:01.085Z,19.27
2018-12-16T02:44:05.219Z,20.72
2018-12-16T02:47:09.225Z,18.80
2018-12-16T02:50:13.235Z,18.73
2018-12-16T02:53:17.239Z,21.23
2018-12-16T02:56:21.267Z,19.05
2018-12-16T02:59:25.383Z,19.37
2018-12-16T03:02:29.407Z,17.77
2018-12-16T03:05:33.413Z,19.65
2018-12-16T03:08:37.443Z,17.50
2018-12-16T03:11:41.533Z,18.85
2018-12-16T03:14:45.557Z,18.17
2018-12-16T03:17:49.564Z,19.37
2018-12-16T03:20:53.698Z,19.87
2018-12-16T03:23:57.715Z,18.65
2018-12-16T03:27:01.741Z,19.82
2018-12-16T03:30:07.711Z,19.27
2018-12-16T03:33:11.826Z,17.05
2018-12-16T03:36:15.923Z,18.85
2018-12-16T03:39:19.947Z,18.57
2018-12-16T03:42:23.966Z,18.52
2018-12-16T03:45:27.983Z,18.85
2018-12-16T03:48:32.002Z,19.30
2018-12-16T03:51:36.011Z,27.95
2018-12-16T03:54:40.042Z,18.95
2018-12-16T03:57:44.059Z,19.80
2018-12-16T04:00:48.091Z,18.55
2018-12-16T04:03:52.115Z,16.62
2018-12-16T04:06:56.317Z,18.80
2018-12-16T04:10:00.494Z,19.73
2018-12-16T04:13:04.602Z,17.50
2018-12-16T04:16:08.721Z,18.12
2018-12-16T04:19:12.845Z,19.65
2018-12-16T04:22:16.944Z,18.42
2018-12-16T04:25:22.460Z,17.42
2018-12-16T04:28:26.732Z,18.77
2018-12-16T04:31:30.818Z,18.98
2018-12-16T04:34:34.847Z,18.35
2018-12-16T04:37:38.846Z,33.60
2018-12-16T04:40:42.874Z,18.62
2018-12-16T04:43:46.895Z,21.10
2018-12-16T04:46:51.098Z,17.98
2018-12-16T04:49:55.110Z,18.65
2018-12-16T04:52:59.115Z,18.12
2018-12-16T04:56:03.135Z,18.52
2018-12-16T04:59:07.150Z,18.87
2018-12-16T05:02:11.242Z,18.23
2018-12-16T05:05:15.244Z,17.75
2018-12-16T05:08:19.250Z,17.80
2018-12-16T05:11:23.274Z,19.75
2018-12-16T05:14:27.286Z,16.42
2018-12-16T05:17:31.312Z,18.60
2018-12-16T05:20:35.322Z,17.87
2018-12-16T05:23:42.045Z,19.62
2018-12-16T05:26:45.346Z,16.90
2018-12-16T05:29:49.354Z,17.87
2018-12-16T05:32:53.390Z,18.65
2018-12-16T05:35:57.840Z,19.82
2018-12-16T05:39:01.895Z,18.80
2018-12-16T05:42:05.923Z,19.27
2018-12-16T05:45:10.028Z,19.23
2018-12-16T05:48:14.050Z,16.73
2018-12-16T05:51:18.082Z,16.42
2018-12-16T05:54:22.094Z,17.48
2018-12-16T05:57:26.129Z,17.30
2018-12-16T06:00:30.147Z,16.30
2018-12-16T06:03:34.172Z,17.35
2018-12-16T06:06:38.186Z,17.52
2018-12-16T06:09:42.290Z,16.55
2018-12-16T06:12:46.313Z,18.87
2018-12-16T06:15:50.413Z,17.73
2018-12-16T06:18:54.443Z,17.27
2018-12-16T06:21:58.447Z,16.42
2018-12-16T06:25:02.591Z,18.55
2018-12-16T06:28:06.663Z,17.27
2018-12-16T06:31:10.675Z,16.30
2018-12-16T06:34:14.904Z,15.05
2018-12-16T06:37:19.016Z,17.75
2018-12-16T06:40:23.122Z,16.35
2018-12-16T06:43:27.211Z,17.45
2018-12-16T06:46:31.229Z,17.15
2018-12-16T06:49:35.254Z,15.75
2018-12-16T06:52:39.262Z,15.95
2018-12-16T06:55:43.540Z,16.15
2018-12-16T06:58:47.659Z,18.10
2018-12-16T07:01:51.678Z,18.32
2018-12-16T07:04:55.798Z,16.82
2018-12-16T07:07:59.896Z,16.25
2018-12-16T07:11:04.083Z,16.57
2018-12-16T07:14:08.093Z,17.32
2018-12-16T07:17:12.110Z,17.92
2018-12-16T07:20:16.131Z,17.17
2018-12-16T07:23:20.148Z,17.42
2018-12-16T07:26:24.244Z,17.70
2018-12-16T07:29:28.268Z,18.10
2018-12-16T07:32:32.295Z,18.17
2018-12-16T07:35:36.324Z,20.05
2018-12-16T07:38:40.410Z,18.10
2018-12-16T07:41:44.484Z,19.02
2018-12-16T07:44:48.571Z,17.67
2018-12-16T07:47:52.668Z,21.20
2018-12-16T07:50:56.708Z,18.77
2018-12-16T07:54:00.799Z,18.25
2018-12-16T07:57:04.917Z,20.40
2018-12-16T08:00:10.722Z,18.40
2018-12-16T08:03:14.794Z,19.92
2018-12-16T08:06:18.807Z,19.70
2018-12-16T08:09:22.828Z,18.35
2018-12-16T08:12:26.859Z,18.60
2018-12-16T08:15:30.874Z,21.73
2018-12-16T08:18:34.883Z,20.70
2018-12-16T08:21:39.129Z,21.55
2018-12-16T08:24:43.159Z,19.90
2018-12-16T08:27:47.178Z,21.15
2018-12-16T08:30:51.201Z,20.37
2018-12-16T08:33:55.219Z,21.75
2018-12-16T08:36:59.359Z,21.00
2018-12-16T08:40:03.575Z,20.02
2018-12-16T08:43:07.778Z,19.48
2018-12-16T08:46:11.896Z,20.32
2018-12-16T08:49:15.911Z,20.60
2018-12-16T08:52:19.934Z,21.73
2018-12-16T08:55:24.038Z,20.30
2018-12-16T08:58:28.052Z,20.15
2018-12-16T09:01:32.143Z,21.23
2018-12-16T09:04:36.179Z,20.25
2018-12-16T09:07:40.204Z,21.40
2018-12-16T09:10:44.214Z,18.90
2018-12-16T09:13:48.220Z,20.90
2018-12-16T09:16:53.669Z,22.07
2018-12-16T09:19:57.855Z,22.60
2018-12-16T09:23:01.868Z,20.95
2018-12-16T09:26:05.899Z,19.98
2018-12-16T09:29:09.911Z,18.90
2018-12-16T09:32:13.955Z,21.68
2018-12-16T09:35:17.981Z,21.57
2018-12-16T09:38:22.376Z,20.90
2018-12-16T09:41:26.471Z,20.72
2018-12-16T09:44:30.505Z,20.80
2018-12-16T09:47:34.694Z,20.82
2018-12-16T09:50:38.919Z,20.77
2018-12-16T09:53:42.928Z,22.82
2018-12-16T09:56:46.958Z,22.80
2018-12-16T09:59:50.968Z,22.32
2018-12-16T10:02:55.082Z,22.00
2018-12-16T10:05:59.202Z,20.72
2018-12-16T10:09:05.299Z,22.30
2018-12-16T10:12:09.319Z,22.22
2018-12-16T10:15:13.438Z,22.27
2018-12-16T10:18:17.438Z,23.45
2018-12-16T10:21:21.463Z,23.42
2018-12-16T10:24:25.566Z,22.73
2018-12-16T10:27:29.689Z,22.60
2018-12-16T10:30:33.748Z,21.55
2018-12-16T10:33:37.850Z,21.52
2018-12-16T10:36:41.858Z,23.03
2018-12-16T10:39:45.992Z,21.33
2018-12-16T10:42:50.002Z,20.08
2018-12-16T10:45:54.031Z,22.55
2018-12-16T10:49:04.575Z,23.32
2018-12-16T10:52:04.313Z,22.02
2018-12-16T10:55:08.339Z,29.60
2018-12-16T10:58:12.382Z,25.60
2018-12-16T11:01:33.983Z,25.88
2018-12-16T11:04:37.999Z,25.17
2018-12-16T11:07:42.038Z,24.07
2018-12-16T11:10:46.051Z,26.37
2018-12-16T11:13:50.082Z,23.38
2018-12-16T11:16:54.118Z,24.97
2018-12-16T11:19:58.126Z,25.45
2018-12-16T11:23:02.289Z,24.43
2018-12-16T11:26:07.003Z,24.47
2018-12-16T11:29:11.026Z,28.97
2018-12-16T11:32:15.141Z,29.37
2018-12-16T11:35:19.172Z,27.40
2018-12-16T11:38:23.282Z,27.07
2018-12-16T11:41:27.296Z,28.30
2018-12-16T11:44:31.334Z,25.57
2018-12-16T11:47:35.363Z,25.63
2018-12-16T11:50:39.431Z,31.90
2018-12-16T11:53:43.479Z,27.85
2018-12-16T11:56:47.487Z,26.07
2018-12-16T11:59:51.502Z,24.23
2018-12-16T12:02:55.527Z,29.90
2018-12-16T12:05:59.546Z,23.03
2018-12-16T12:09:04.914Z,25.67
2018-12-16T12:12:08.931Z,23.53
2018-12-16T12:15:13.128Z,27.75
2018-12-16T12:18:17.214Z,23.67
2018-12-16T12:21:21.257Z,45.13
2018-12-16T12:24:25.278Z,28.13
2018-12-16T12:27:29.298Z,27.65
2018-12-16T12:30:33.402Z,26.60
2018-12-16T12:33:37.441Z,24.45
2018-12-16T12:36:41.446Z,26.90
2018-12-16T12:39:45.466Z,26.77
2018-12-16T12:42:49.894Z,25.43
2018-12-16T12:45:54.023Z,27.70
2018-12-16T12:48:58.158Z,27.50
2018-12-16T12:52:02.153Z,29.03
2018-12-16T12:55:06.376Z,27.07
2018-12-16T12:58:10.375Z,29.47
2018-12-16T13:01:14.404Z,30.17
2018-12-16T13:04:18.561Z,28.40
2018-12-16T13:07:22.582Z,27.07
2018-12-16T13:10:26.703Z,29.17
2018-12-16T13:13:30.728Z,30.10
2018-12-16T13:16:34.759Z,27.80
2018-12-16T13:19:38.817Z,25.73
2018-12-16T13:22:42.835Z,26.70
2018-12-16T13:25:58.111Z,26.13
2018-12-16T13:29:03.167Z,28.13
2018-12-16T13:32:07.202Z,27.27
2018-12-16T13:35:11.236Z,30.20
2018-12-16T13:38:15.458Z,28.43
2018-12-16T13:41:19.475Z,27.03
2018-12-16T13:44:23.490Z,29.27
2018-12-16T13:47:27.515Z,30.93
2018-12-16T13:50:31.530Z,28.63
2018-12-16T13:53:35.618Z,27.60
2018-12-16T13:56:39.626Z,27.33
2018-12-16T13:59:43.635Z,27.60
2018-12-16T14:02:47.641Z,29.90
2018-12-16T14:05:51.785Z,29.57
2018-12-16T14:08:55.802Z,28.87
2018-12-16T14:11:59.911Z,30.50
2018-12-16T14:15:04.427Z,30.70
2018-12-16T14:18:08.562Z,29.47
2018-12-16T14:21:12.675Z,28.97
2018-12-16T14:24:16.876Z,28.43
2018-12-16T14:27:20.940Z,29.43
2018-12-16T14:30:25.018Z,28.20
2018-12-16T14:33:29.031Z,28.00
2018-12-16T14:36:33.038Z,27.33
2018-12-16T14:39:37.111Z,28.17
2018-12-16T14:42:41.559Z,29.67
2018-12-16T14:45:45.634Z,30.10
2018-12-16T14:48:49.671Z,28.50
2018-12-16T14:51:53.778Z,29.90
2018-12-16T14:54:57.815Z,28.70
2018-12-16T14:58:01.916Z,29.30
2018-12-16T15:01:05.931Z,28.73
2018-12-16T15:04:10.111Z,29.87
2018-12-16T15:07:14.143Z,28.97
2018-12-16T15:10:18.150Z,31.40
2018-12-16T15:13:22.171Z,32.70
2018-12-16T15:16:26.168Z,28.20
2018-12-16T15:19:30.197Z,28.30
2018-12-16T15:22:34.290Z,28.27
2018-12-16T15:25:38.334Z,27.10
2018-12-16T15:28:42.359Z,29.80
2018-12-16T15:31:46.375Z,27.43
2018-12-16T15:34:50.450Z,28.73
2018-12-16T15:37:54.467Z,30.43
2018-12-16T15:40:58.579Z,28.87
2018-12-16T15:44:02.670Z,29.87
2018-12-16T15:47:06.698Z,28.67
2018-12-16T15:50:10.874Z,31.33
2018-12-16T15:53:14.958Z,35.13
2018-12-16T15:56:19.226Z,30.30
2018-12-16T15:59:23.228Z,28.30
2018-12-16T16:02:27.245Z,26.80
2018-12-16T16:05:31.253Z,33.73
2018-12-16T16:08:35.259Z,32.00
2018-12-16T16:11:39.276Z,30.50
2018-12-16T16:14:43.305Z,29.93
2018-12-16T16:17:47.311Z,30.80
2018-12-16T16:20:51.314Z,32.03
2018-12-16T16:23:55.340Z,41.27
2018-12-16T16:26:59.359Z,34.77
2018-12-16T16:30:04.397Z,31.13
2018-12-16T16:33:08.668Z,31.87
2018-12-16T16:36:12.662Z,32.90
2018-12-16T16:39:16.738Z,30.40
2018-12-16T16:42:20.754Z,31.70
2018-12-16T16:45:24.776Z,30.00
2018-12-16T16:48:28.807Z,29.87
2018-12-16T16:51:32.825Z,28.27
2018-12-16T16:54:36.845Z,30.57
2018-12-16T16:57:40.850Z,29.23
2018-12-16T17:00:44.884Z,29.13
2018-12-16T17:03:48.902Z,30.60
2018-12-16T17:06:52.975Z,29.37
2018-12-16T17:09:56.993Z,29.77
2018-12-16T17:13:01.030Z,33.27
2018-12-16T17:16:05.060Z,29.77
2018-12-16T17:19:09.375Z,31.00
2018-12-16T17:22:13.868Z,31.40
2018-12-16T17:25:18.000Z,30.50
2018-12-16T17:28:22.070Z,41.93
2018-12-16T17:31:26.075Z,36.60
2018-12-16T17:34:30.103Z,34.33
2018-12-16T17:37:34.341Z,33.50
2018-12-16T17:40:38.344Z,41.37
2018-12-16T17:43:42.358Z,34.10
2018-12-16T17:46:46.372Z,30.90
2018-12-16T17:49:50.386Z,33.00
2018-12-16T17:52:54.402Z,33.60
2018-12-16T17:55:58.635Z,34.50
2018-12-16T17:59:02.669Z,32.20
2018-12-16T18:02:06.763Z,34.30
2018-12-16T18:05:10.786Z,36.03
2018-12-16T18:08:14.892Z,34.83
2018-12-16T18:11:18.908Z,32.83
2018-12-16T18:14:22.938Z,34.73
2018-12-16T18:17:26.962Z,34.77
2018-12-16T18:20:30.986Z,34.47
2018-12-16T18:23:34.999Z,33.67
2018-12-16T18:26:44.076Z,34.93
2018-12-16T18:29:45.039Z,38.30
2018-12-16T18:32:49.054Z,37.97
2018-12-16T18:35:53.115Z,37.00
2018-12-16T18:38:57.267Z,36.87
2018-12-16T18:42:01.549Z,41.83
2018-12-16T18:45:06.173Z,44.53
2018-12-16T18:48:10.272Z,39.77
2018-12-16T18:51:14.299Z,42.80
2018-12-16T18:54:18.310Z,43.03
2018-12-16T18:57:22.356Z,38.73
2018-12-16T19:00:26.398Z,34.13
2018-12-16T19:03:30.427Z,34.70
2018-12-16T19:06:34.838Z,35.27
2018-12-16T19:09:38.847Z,34.63
2018-12-16T19:12:42.945Z,33.67
2018-12-16T19:15:46.980Z,34.90
2018-12-16T19:18:51.367Z,30.97
2018-12-16T19:21:55.894Z,32.40
2018-12-16T19:25:00.105Z,28.77
2018-12-16T19:28:04.223Z,32.27
2018-12-16T19:31:08.333Z,32.10
2018-12-16T19:34:12.334Z,31.50
2018-12-16T19:37:16.353Z,33.23
2018-12-16T19:40:20.362Z,31.00
2018-12-16T19:43:24.470Z,33.90
2018-12-16T19:46:28.477Z,28.53
2018-12-16T19:49:32.560Z,29.33
2018-12-16T19:52:36.606Z,30.93
2018-12-16T19:55:40.609Z,31.07
2018-12-16T19:58:45.026Z,30.90
2018-12-16T20:01:49.107Z,31.60
2018-12-16T20:04:58.607Z,32.60
2018-12-16T20:08:02.735Z,33.37
2018-12-16T20:11:06.745Z,36.73
2018-12-16T20:14:10.955Z,34.90
2018-12-16T20:17:14.967Z,32.70
2018-12-16T20:20:18.986Z,35.80
2018-12-16T20:23:23.007Z,37.90
2018-12-16T20:26:27.031Z,39.47
2018-12-16T20:29:31.047Z,33.80
2018-12-16T20:32:35.065Z,32.23
2018-12-16T20:35:39.090Z,33.70
2018-12-16T20:38:43.113Z,34.27
2018-12-16T20:41:47.134Z,32.07
2018-12-16T20:44:51.142Z,30.10
2018-12-16T20:47:55.184Z,31.37
2018-12-16T20:50:59.284Z,32.00
2018-12-16T20:54:03.395Z,31.70
2018-12-16T20:57:07.731Z,31.17
2018-12-16T21:00:11.982Z,34.00
2018-12-16T21:03:16.038Z,34.80
2018-12-16T21:06:20.077Z,29.63
2018-12-16T21:09:24.107Z,32.40
2018-12-16T21:12:33.676Z,31.13
2018-12-16T21:15:43.191Z,29.23
2018-12-16T21:18:47.265Z,35.07
2018-12-16T21:21:51.305Z,32.87
2018-12-16T21:24:56.059Z,29.93
2018-12-16T21:28:00.210Z,31.00
2018-12-16T21:31:04.307Z,29.23
2018-12-16T21:34:08.931Z,31.20
2018-12-16T21:37:13.362Z,28.57
2018-12-16T21:40:17.524Z,30.40
2018-12-16T21:43:21.930Z,29.67
2018-12-16T21:46:26.267Z,31.40
2018-12-16T21:49:30.762Z,30.23
2018-12-16T21:52:35.455Z,36.40
2018-12-16T21:55:39.930Z,35.27
2018-12-16T21:58:43.940Z,34.47
2018-12-16T22:01:48.109Z,31.17
2018-12-16T22:04:52.249Z,30.70
2018-12-16T22:07:56.708Z,32.80
2018-12-16T22:11:01.176Z,29.67
2018-12-16T22:14:05.363Z,30.87
2018-12-16T22:17:09.378Z,29.03
2018-12-16T22:20:13.410Z,31.37
2018-12-16T22:23:17.510Z,29.33
2018-12-16T22:26:21.580Z,29.37
2018-12-16T22:29:25.690Z,31.47
2018-12-16T22:32:30.079Z,30.20
2018-12-16T22:35:34.095Z,31.47
2018-12-16T22:38:38.522Z,26.13
2018-12-16T22:41:42.632Z,30.40
2018-12-16T22:44:46.840Z,30.50
2018-12-16T22:47:50.909Z,29.30
2018-12-16T22:50:55.062Z,29.93
2018-12-16T22:53:59.109Z,29.60
2018-12-16T22:57:03.234Z,30.87
2018-12-16T23:00:10.768Z,29.27
2018-12-16T23:03:14.805Z,32.07
2018-12-16T23:06:18.805Z,31.70
2018-12-16T23:09:23.201Z,37.58
2018-12-16T23:12:27.208Z,31.13
2018-12-16T23:15:31.307Z,30.00
2018-12-16T23:18:35.332Z,28.80
2018-12-16T23:21:39.512Z,30.70
2018-12-16T23:24:43.928Z,28.77
2018-12-16T23:27:54.029Z,26.60
2018-12-16T23:30:55.062Z,26.70
2018-12-16T23:33:59.525Z,29.77
2018-12-16T23:37:03.845Z,31.10
2018-12-16T23:40:08.698Z,32.67
2018-12-16T23:43:12.746Z,29.60
2018-12-16T23:46:16.766Z,29.10
2018-12-16T23:49:20.807Z,29.17
2018-12-16T23:52:24.826Z,27.47
2018-12-16T23:55:28.977Z,30.90
2018-12-16T23:58:33.063Z,27.20
